createdAt,value
2022-10-18T01:05:27.208Z,101414.59
2022-10-18T01:08:05.850Z,101414.59
2022-10-18T01:11:25.411Z,101313.91
2022-10-18T01:14:43.274Z,101305.44
2022-10-18T03:30:53.840Z,101268.63
2022-10-18T03:38:34.746Z,101269.62
2022-10-18T05:01:28.067Z,101247.41
2022-10-18T05:03:58.959Z,101249.94
2022-10-18T06:24:07.558Z,101255.06
2022-10-18T07:40:22.719Z,101263.59
2022-10-18T07:42:49.357Z,101263.16
2022-10-18T07:45:17.132Z,101258.72
2022-10-18T07:47:43.715Z,101257.72
2022-10-18T07:50:17.066Z,101263.19
2022-10-18T08:13:35.416Z,101244.25
2022-10-18T08:16:08.038Z,101241.94
2022-10-18T08:18:38.557Z,101244.06
2022-10-18T08:21:07.644Z,101241.97
2022-10-18T08:23:35.058Z,101240.75
2022-10-18T08:26:05.186Z,101237.16
2022-10-18T08:28:31.974Z,101236.00
2022-10-18T08:44:35.320Z,101203.25
2022-10-18T08:47:45.375Z,101207.00
2022-10-18T09:25:35.768Z,101172.34
2022-10-18T09:28:12.464Z,101176.22
2022-10-18T09:30:45.613Z,101170.47
2022-10-18T09:33:42.845Z,101165.87
2022-10-18T09:36:14.945Z,101170.06
2022-10-18T09:39:00.679Z,101156.13
2022-10-18T09:41:27.273Z,101157.34
2022-10-18T09:44:03.328Z,101164.84
2022-10-18T09:46:41.551Z,101154.75
2022-10-18T09:49:17.046Z,101157.25
2022-10-18T09:51:45.912Z,101156.34
2022-10-18T09:54:22.835Z,101148.06
2022-10-18T09:56:57.414Z,101143.59
2022-10-18T09:59:36.951Z,101143.03
2022-10-18T10:02:05.227Z,101134.09
2022-10-18T10:04:31.914Z,101137.31
2022-10-18T10:07:04.489Z,101121.03
2022-10-18T10:09:40.779Z,101120.97
2022-10-18T10:12:34.735Z,101121.69
2022-10-18T10:15:10.351Z,101109.75
2022-10-18T10:17:37.590Z,101115.03
2022-10-18T10:20:15.782Z,101103.66
2022-10-18T10:22:44.810Z,101105.66
2022-10-18T10:28:18.463Z,101095.53
2022-10-18T10:30:45.055Z,101095.47
2022-10-18T10:33:37.823Z,101085.25
2022-10-18T10:38:39.626Z,101079.75
2022-10-18T10:41:21.036Z,101078.25
2022-10-18T10:43:48.842Z,101073.06
2022-10-18T10:46:19.046Z,101068.44
2022-10-18T10:49:04.487Z,101063.78
2022-10-18T10:51:43.605Z,101063.47
2022-10-18T10:54:20.496Z,101066.59
2022-10-18T10:57:04.015Z,101063.94
2022-10-18T11:04:56.189Z,101036.00
2022-10-18T11:07:39.524Z,101033.59
2022-10-18T11:10:09.984Z,101032.28
2022-10-18T11:12:42.052Z,101029.84
2022-10-18T11:15:14.329Z,101024.06
2022-10-18T11:18:02.643Z,101036.22
2022-10-18T11:20:44.002Z,101014.94
2022-10-18T11:23:16.285Z,101016.53
2022-10-18T11:26:01.367Z,101013.47
2022-10-18T11:28:43.523Z,101014.44
2022-10-18T11:31:48.618Z,101008.19
2022-10-18T11:45:11.642Z,100995.38
2022-10-18T11:48:09.341Z,100987.84
2022-10-18T11:50:59.474Z,100985.53
2022-10-18T11:53:56.913Z,100979.34
2022-10-18T12:01:44.285Z,100961.31
2022-10-18T12:04:23.579Z,100964.84
2022-10-18T12:06:54.877Z,100956.75
2022-10-18T12:09:35.641Z,100951.72
2022-10-18T12:12:27.959Z,100943.16
2022-10-18T12:15:25.622Z,100945.72
2022-10-18T12:18:02.032Z,100943.75
2022-10-18T12:20:38.840Z,100937.84
2022-10-18T12:23:18.673Z,100930.06
2022-10-18T12:25:56.425Z,100931.66
2022-10-18T12:28:41.796Z,100930.38
2022-10-18T12:31:16.436Z,100919.13
2022-10-18T12:45:53.511Z,100901.25
2022-10-18T12:54:17.064Z,100884.13
2022-10-18T12:59:34.392Z,100878.66
2022-10-18T13:02:24.507Z,100876.44
2022-10-18T13:04:51.537Z,100882.28
2022-10-18T13:07:20.374Z,100868.22
2022-10-18T13:10:15.096Z,100866.75
2022-10-18T13:13:36.023Z,100869.56
2022-10-18T13:16:14.868Z,100863.25
2022-10-18T13:30:59.677Z,100846.78
2022-10-18T13:33:36.775Z,100849.16
2022-10-18T13:36:22.883Z,100851.75
2022-10-18T13:38:59.743Z,100852.62
2022-10-18T13:41:56.509Z,100846.69
2022-10-18T13:44:41.375Z,100850.63
2022-10-18T13:47:37.666Z,100852.56
2022-10-18T13:50:22.235Z,100848.53
2022-10-18T13:55:52.024Z,100837.88
2022-10-18T14:04:25.552Z,100820.75
2022-10-18T14:09:45.262Z,100819.69
2022-10-18T14:12:46.131Z,100814.34
2022-10-18T14:32:46.679Z,100796.91
2022-10-18T14:35:32.631Z,100802.53
2022-10-18T14:41:55.238Z,100795.94
2022-10-18T14:47:17.600Z,100797.78
2022-10-18T14:55:43.738Z,100766.13
2022-10-18T14:58:16.879Z,100767.94
2022-10-18T15:00:50.590Z,100759.25
2022-10-18T15:06:02.737Z,100762.94
2022-10-18T15:08:46.794Z,100764.69
2022-10-18T15:28:04.502Z,100752.37
2022-10-18T15:30:43.111Z,100751.78
2022-10-18T15:33:22.432Z,100750.66
2022-10-18T15:35:49.456Z,100752.50
2022-10-18T15:38:36.276Z,100747.00
2022-10-18T15:41:03.410Z,100742.28
2022-10-18T15:43:30.432Z,100735.94
2022-10-18T15:46:03.325Z,100743.28
2022-10-18T15:48:41.681Z,100742.63
2022-10-18T15:51:36.331Z,100737.38
2022-10-18T15:54:02.942Z,100730.19
2022-10-18T15:56:37.704Z,100732.16
2022-10-18T16:15:23.978Z,100734.31
2022-10-18T16:17:53.597Z,100734.28
2022-10-18T16:20:27.840Z,100734.66
2022-10-18T16:22:54.496Z,100733.94
2022-10-18T16:25:21.139Z,100732.28
2022-10-18T16:27:47.825Z,100736.88
2022-10-18T17:04:45.025Z,100747.09
2022-10-18T17:07:23.383Z,100732.06
2022-10-18T17:09:50.236Z,100738.34
2022-10-18T17:12:16.843Z,100727.53
2022-10-18T17:14:43.818Z,100736.53
2022-10-18T17:17:16.702Z,100730.06
2022-10-18T17:19:43.214Z,100736.72
2022-10-18T17:22:09.863Z,100744.88
2022-10-18T17:24:36.443Z,100736.78
2022-10-18T17:27:03.383Z,100745.56
2022-10-18T17:29:29.981Z,100740.91
2022-10-18T17:31:59.563Z,100740.25
2022-10-18T17:34:26.431Z,100738.97
2022-10-18T17:36:53.621Z,100744.34
2022-10-18T17:39:20.522Z,100743.03
2022-10-18T17:41:47.419Z,100743.16
2022-10-18T17:44:14.419Z,100734.56
2022-10-18T17:46:42.208Z,100735.25
2022-10-18T17:49:09.010Z,100729.94
2022-10-18T17:51:35.645Z,100724.03
2022-10-18T17:54:02.484Z,100729.81
2022-10-18T17:56:33.731Z,100727.00
2022-10-18T17:59:01.153Z,100722.16
2022-10-18T18:01:28.034Z,100726.28
2022-10-18T18:04:01.208Z,100729.59
2022-10-18T18:06:34.160Z,100715.97
2022-10-18T18:09:27.308Z,100720.91
2022-10-18T18:11:55.647Z,100720.91
2022-10-18T18:14:22.834Z,100718.84
2022-10-18T18:16:49.624Z,100736.47
2022-10-18T18:19:19.290Z,100725.22
2022-10-18T18:21:46.252Z,100722.09
2022-10-18T18:24:14.169Z,100719.00
2022-10-18T18:37:28.646Z,100714.06
2022-10-18T18:39:55.295Z,100708.09
2022-10-18T18:42:22.707Z,100714.69
2022-10-18T18:44:50.285Z,100704.91
2022-10-18T18:49:43.447Z,100707.87
2022-10-18T18:52:09.995Z,100708.47
2022-10-18T18:54:39.676Z,100706.09
2022-10-18T18:57:09.126Z,100703.66
2022-10-18T18:59:47.614Z,100693.75
2022-10-18T19:29:39.200Z,100680.47
2022-10-18T19:32:08.582Z,100677.94
2022-10-18T19:48:13.350Z,100677.63
2022-10-18T19:50:40.253Z,100668.31
2022-10-18T19:53:06.903Z,100685.63
2022-10-18T19:55:34.587Z,100669.97
2022-10-18T19:58:01.323Z,100672.16
2022-10-18T20:00:28.036Z,100672.34
2022-10-18T20:21:56.121Z,100657.87
2022-10-18T20:24:22.693Z,100653.28
2022-10-18T20:26:49.357Z,100649.12
2022-10-18T20:29:16.115Z,100645.28
2022-10-18T20:38:24.698Z,100656.47
2022-10-18T20:40:51.411Z,100656.47
2022-10-18T21:16:51.696Z,100631.34
2022-10-18T21:19:27.381Z,100638.69
2022-10-18T21:48:37.425Z,100611.06
2022-10-18T22:08:16.293Z,100584.69
2022-10-18T22:10:42.885Z,100581.09
2022-10-18T22:13:09.439Z,100576.37
2022-10-18T22:18:03.420Z,100582.50
2022-10-18T22:23:05.227Z,100576.47
2022-10-18T22:25:36.115Z,100584.91
2022-10-18T22:28:03.345Z,100578.56
2022-10-18T22:41:55.677Z,100564.16
2022-10-18T22:44:22.500Z,100560.31
2022-10-18T22:46:49.542Z,100552.28
2022-10-18T23:58:22.229Z,100531.91
